Time;durP1;ratioP1;P1;durP2;ratioP2;P2;SDS_P1;SDS_P2;PMS_P1;PMS_P2;Temp;Humidity;BMP_temperature;BMP_pressure;BME280_temperature;BME280_humidity;BME280_pressure;Samples;Min_cycle;Max_cycle;Signal;HPM_P1;HPM_P2
2022/07/23 00:01:21;;;;;;;6.75;2.95;;;;;;;16.78;82.37;100511.87;1828551;77;21105;-88
2022/07/23 00:03:48;;;;;;;4.17;2.85;;;;;;;16.76;82.52;100505.41;1825778;78;20990;-88
2022/07/23 00:06:15;;;;;;;3.83;3.52;;;;;;;16.75;82.39;100510.83;1824582;78;20875;-89
2022/07/23 00:08:41;;;;;;;3.55;2.95;;;;;;;16.73;82.70;100510.95;1824603;77;21014;-89
2022/07/23 00:11:09;;;;;;;3.10;2.90;;;;;;;16.73;82.68;100516.75;1824127;77;20951;-89
2022/07/23 00:13:36;;;;;;;3.55;3.25;;;;;;;16.72;82.60;100520.38;1822297;78;21117;-90
2022/07/23 00:16:05;;;;;;;4.03;3.37;;;;;;;16.70;82.70;100519.67;1821972;78;20872;-90
2022/07/23 00:18:32;;;;;;;4.90;3.92;;;;;;;16.67;82.64;100519.43;1822233;78;20978;-89
2022/07/23 00:20:58;;;;;;;12.00;4.67;;;;;;;16.65;82.73;100512.14;1821977;78;20986;-89
2022/07/23 00:23:26;;;;;;;4.03;3.65;;;;;;;16.63;82.80;100521.16;1822057;78;21369;-89
2022/07/23 00:25:54;;;;;;;4.58;3.83;;;;;;;16.60;82.84;100520.94;1822014;78;21393;-90
2022/07/23 00:28:22;;;;;;;4.10;3.72;;;;;;;16.58;83.05;100526.86;1821902;78;20912;-89
2022/07/23 00:30:49;;;;;;;3.60;3.30;;;;;;;16.55;83.16;100522.67;1821950;78;20958;-90
2022/07/23 00:33:15;;;;;;;6.03;3.67;;;;;;;16.52;83.28;100521.63;1821973;78;20863;-89
2022/07/23 00:35:44;;;;;;;5.45;3.85;;;;;;;16.49;83.49;100523.19;1822101;78;21299;-89
2022/07/23 00:38:11;;;;;;;6.12;3.30;;;;;;;16.48;83.46;100520.70;1821847;78;21199;-90
2022/07/23 00:40:38;;;;;;;4.42;3.40;;;;;;;16.46;83.50;100523.96;1821654;78;20947;-90
2022/07/23 00:43:05;;;;;;;3.58;3.37;;;;;;;16.42;83.50;100523.38;1821816;78;20883;-90
2022/07/23 00:45:31;;;;;;;5.20;4.22;;;;;;;16.39;83.57;100531.59;1821810;78;21362;-89
2022/07/23 00:48:00;;;;;;;4.55;3.72;;;;;;;16.37;83.66;100528.23;1822132;78;21447;-89
2022/07/23 00:50:27;;;;;;;3.45;3.25;;;;;;;16.34;83.71;100527.16;1822289;78;21154;-90
2022/07/23 00:52:53;;;;;;;4.33;4.03;;;;;;;16.30;84.00;100530.57;1822007;78;20860;-89
2022/07/23 00:55:21;;;;;;;5.42;3.72;;;;;;;16.29;83.96;100526.72;1822197;78;21413;-88
2022/07/23 00:57:48;;;;;;;4.17;3.87;;;;;;;16.26;84.06;100530.48;1822411;78;21005;-89
2022/07/23 01:00:16;;;;;;;4.10;3.75;;;;;;;16.24;84.31;100531.58;1817817;78;20857;-88
2022/07/23 01:02:44;;;;;;;4.08;3.65;;;;;;;16.21;84.31;100527.39;1822604;78;21774;-89
2022/07/23 01:05:11;;;;;;;4.10;3.70;;;;;;;16.16;84.72;100538.37;1825634;78;20927;-89
2022/07/23 01:07:38;;;;;;;4.25;3.27;;;;;;;16.16;84.72;100538.37;1825142;78;21009;-90
2022/07/23 01:10:30;;;;;;;4.40;4.10;;;;;;;16.13;84.59;100537.29;1825548;78;20868;-91
2022/07/23 01:12:34;;;;;;;6.22;4.03;;;;;;;16.11;84.93;100542.36;1825240;78;20914;-90
2022/07/23 01:15:01;;;;;;;6.25;4.28;;;;;;;16.11;84.83;100546.33;1825590;78;21137;-90
2022/07/23 01:17:31;;;;;;;5.45;4.80;;;;;;;16.07;84.84;100544.41;1825603;77;20927;-90
2022/07/23 01:19:58;;;;;;;4.50;4.20;;;;;;;16.06;85.09;100549.37;1825534;78;20989;-89
2022/07/23 01:22:29;;;;;;;3.65;3.35;;;;;;;16.05;85.09;100547.70;1825509;78;20939;-90
2022/07/23 01:24:55;;;;;;;5.97;3.90;;;;;;;16.04;85.27;100549.14;1825715;78;20839;-90
2022/07/23 01:27:24;;;;;;;4.45;4.00;;;;;;;16.01;85.28;100555.53;1825796;78;21239;-90
2022/07/23 01:29:54;;;;;;;4.60;4.17;;;;;;;16.01;85.35;100559.96;1817962;77;21287;-90
2022/07/23 01:32:22;;;;;;;4.08;3.50;;;;;;;16.00;85.46;100559.13;1816024;79;20880;-90
2022/07/23 01:34:49;;;;;;;5.10;4.30;;;;;;;15.99;85.49;100553.98;1816059;79;20932;-89
2022/07/23 01:37:16;;;;;;;4.37;4.08;;;;;;;15.98;85.61;100554.45;1816057;78;20845;-91
2022/07/23 01:39:45;;;;;;;4.33;4.03;;;;;;;15.98;85.79;100564.20;1816008;79;21236;-89
2022/07/23 01:42:12;;;;;;;4.25;3.85;;;;;;;15.97;85.83;100576.59;1815900;79;20960;-90
2022/07/23 01:44:38;;;;;;;6.17;3.77;;;;;;;15.95;86.12;100570.09;1816068;79;20880;-89
2022/07/23 01:47:07;;;;;;;7.15;3.92;;;;;;;15.97;86.26;100574.44;1815940;79;20923;-88
2022/07/23 01:49:34;;;;;;;5.87;4.20;;;;;;;15.95;86.01;100575.87;1816229;78;21109;-89
2022/07/23 01:52:00;;;;;;;4.28;3.85;;;;;;;15.95;86.21;100579.36;1816168;79;21856;-90
2022/07/23 01:54:32;;;;;;;4.42;4.03;;;;;;;15.94;86.25;100578.16;1816043;79;20924;-89
2022/07/23 01:57:00;;;;;;;4.47;4.08;;;;;;;15.94;86.30;100583.44;1816171;79;21358;-90
2022/07/23 01:59:27;;;;;;;4.70;4.40;;;;;;;15.93;86.44;100584.42;1816024;79;20832;-89
2022/07/23 02:01:56;;;;;;;4.78;4.17;;;;;;;15.93;86.46;100578.64;1816132;79;20829;-90
2022/07/23 02:04:23;;;;;;;4.45;4.10;;;;;;;15.93;86.46;100585.74;1815432;79;21931;-91
2022/07/23 02:06:49;;;;;;;4.37;4.08;;;;;;;15.91;86.44;100585.03;1815313;79;20915;-91
2022/07/23 02:09:17;;;;;;;5.65;4.45;;;;;;;15.90;86.52;100588.66;1816875;78;20939;-88
2022/07/23 02:11:46;;;;;;;3.77;3.40;;;;;;;15.88;86.63;100580.84;1816823;79;20935;-87
2022/07/23 02:14:13;;;;;;;5.47;4.30;;;;;;;15.89;86.70;100581.67;1816350;79;20892;-90
2022/07/23 02:16:41;;;;;;;10.45;4.55;;;;;;;15.89;86.77;100586.47;1815444;78;21378;-89
2022/07/23 02:19:08;;;;;;;4.72;4.33;;;;;;;15.89;86.99;100580.34;1815937;78;21398;-88
2022/07/23 02:21:37;;;;;;;5.20;3.80;;;;;;;15.89;86.58;100584.31;1816010;79;20884;-90
2022/07/23 02:24:05;;;;;;;4.87;4.47;;;;;;;15.89;86.63;100581.67;1815385;79;21406;-90
2022/07/23 02:26:35;;;;;;;4.90;4.40;;;;;;;15.87;86.85;100584.92;1815254;79;20971;-91
2022/07/23 02:29:04;;;;;;;5.30;4.90;;;;;;;15.87;86.98;100587.08;1815537;79;21332;-91
2022/07/23 02:31:32;;;;;;;4.47;4.17;;;;;;;15.90;86.93;100583.37;1816515;79;20983;-88
2022/07/23 02:33:59;;;;;;;5.50;4.50;;;;;;;15.90;87.14;100580.72;1818011;77;20987;-89
2022/07/23 02:36:28;;;;;;;5.37;3.98;;;;;;;15.93;87.04;100587.06;1817806;77;20962;-90
2022/07/23 02:38:55;;;;;;;5.00;4.35;;;;;;;15.93;87.01;100593.19;1818371;77;20861;-90
2022/07/23 02:41:23;;;;;;;5.22;4.53;;;;;;;15.95;86.89;100592.58;1817608;77;21049;-90
2022/07/23 02:43:50;;;;;;;8.65;4.47;;;;;;;15.96;86.79;100593.41;1817941;78;20868;-91
2022/07/23 02:46:17;;;;;;;4.72;4.22;;;;;;;15.95;86.63;100596.55;1818081;77;20971;-91
2022/07/23 02:48:43;;;;;;;8.53;4.70;;;;;;;15.96;86.65;100602.67;1817482;77;20900;-90
2022/07/23 02:51:10;;;;;;;5.05;4.55;;;;;;;15.97;86.65;100606.18;1817663;77;20896;-90
2022/07/23 02:53:38;;;;;;;6.05;4.20;;;;;;;15.98;86.66;100607.84;1817680;77;21215;-90
2022/07/23 02:56:06;;;;;;;5.97;4.17;;;;;;;15.99;86.67;100613.02;1817754;78;20861;-89
2022/07/23 02:58:34;;;;;;;5.42;4.97;;;;;;;16.00;86.52;100611.20;1817564;77;20912;-89
2022/07/23 03:01:01;;;;;;;5.60;5.10;;;;;;;16.00;86.45;100608.55;1817680;77;21014;-90
2022/07/23 03:03:27;;;;;;;4.65;4.30;;;;;;;15.99;86.39;100610.37;1818520;77;21017;-88
2022/07/23 03:05:54;;;;;;;7.42;4.87;;;;;;;15.99;86.31;100605.08;1823674;78;21093;-91
2022/07/23 03:08:22;;;;;;;4.40;3.87;;;;;;;15.99;86.38;100606.89;1822740;78;21381;-90
2022/07/23 03:10:52;;;;;;;7.20;4.65;;;;;;;16.00;86.41;100613.84;1793566;78;20931;-89
2022/07/23 03:13:19;;;;;;;5.87;5.28;;;;;;;16.02;86.42;100618.53;1822381;78;20948;-89
2022/07/23 03:15:46;;;;;;;5.17;4.78;;;;;;;16.01;86.57;100617.70;1822256;78;21009;-90
2022/07/23 03:18:12;;;;;;;5.55;4.80;;;;;;;16.02;86.49;100620.69;1823430;78;21950;-90
2022/07/23 03:20:40;;;;;;;5.20;4.67;;;;;;;16.02;86.48;100614.07;1823581;78;21244;-89
2022/07/23 03:23:07;;;;;;;4.72;4.33;;;;;;;16.03;86.49;100611.80;1823962;78;21357;-90
2022/07/23 03:25:35;;;;;;;6.70;5.35;;;;;;;16.05;86.73;100615.62;1823526;78;20919;-90
2022/07/23 03:28:02;;;;;;;6.78;6.20;;;;;;;16.06;86.52;100614.67;1822375;78;20952;-91
2022/07/23 03:30:30;;;;;;;4.60;4.15;;;;;;;16.08;86.49;100614.89;1822126;78;21120;-91
2022/07/23 03:32:57;;;;;;;5.78;5.12;;;;;;;16.12;86.53;100624.25;1821846;78;21803;-89
2022/07/23 03:35:24;;;;;;;10.65;5.62;;;;;;;16.14;86.47;100621.00;1821778;78;20864;-90
2022/07/23 03:37:53;;;;;;;5.72;5.37;;;;;;;16.17;86.50;100619.91;1819503;78;20899;-90
2022/07/23 03:40:20;;;;;;;5.40;5.00;;;;;;;16.22;86.46;100617.70;1821763;78;20876;-90
2022/07/23 03:42:47;;;;;;;4.75;4.45;;;;;;;16.28;86.53;100620.33;1822994;78;22055;-89
2022/07/23 03:45:13;;;;;;;4.75;4.37;;;;;;;16.33;86.54;100623.42;1823871;78;20927;-88
2022/07/23 03:47:40;;;;;;;8.55;5.53;;;;;;;16.42;86.67;100630.58;1822832;78;20938;-91
2022/07/23 03:50:08;;;;;;;5.03;4.50;;;;;;;16.50;86.30;100632.10;1821982;78;20860;-90
2022/07/23 03:52:35;;;;;;;5.85;4.67;;;;;;;16.59;86.05;100630.48;1821764;78;20880;-89
2022/07/23 03:55:03;;;;;;;5.15;4.65;;;;;;;16.65;85.72;100634.40;1821380;78;21235;-91
2022/07/23 03:57:30;;;;;;;4.60;4.30;;;;;;;16.71;85.39;100637.86;1821148;78;21491;-91
2022/07/23 03:59:57;;;;;;;4.72;4.42;;;;;;;16.76;85.32;100640.94;1821334;78;20888;-90
2022/07/23 04:02:23;;;;;;;5.72;5.17;;;;;;;16.83;85.27;100636.84;1821265;78;21429;-90
2022/07/23 04:04:50;;;;;;;5.37;4.97;;;;;;;16.92;85.07;100630.75;1817652;78;20924;-90
2022/07/23 04:07:17;;;;;;;5.92;4.33;;;;;;;17.01;84.66;100629.58;1815554;79;21110;-91
2022/07/23 04:09:46;;;;;;;4.42;4.12;;;;;;;17.09;84.45;100628.44;1815198;78;20873;-91
2022/07/23 04:12:13;;;;;;;5.72;4.75;;;;;;;17.18;84.27;100632.92;1815477;79;21559;-91
2022/07/23 04:14:40;;;;;;;4.90;4.50;;;;;;;17.27;84.03;100625.48;1815361;79;20979;-91
2022/07/23 04:17:07;;;;;;;7.97;7.20;;;;;;;17.35;83.54;100625.66;1815444;79;20923;-90
2022/07/23 04:19:39;;;;;;;5.92;5.53;;;;;;;17.43;83.23;100619.69;1815322;79;21346;-91
2022/07/23 04:22:10;;;;;;;7.30;5.37;;;;;;;17.55;83.02;100615.09;1815118;79;20832;-90
2022/07/23 04:24:37;;;;;;;6.55;5.85;;;;;;;17.65;82.71;100619.91;1815622;78;21354;-92
2022/07/23 04:27:04;;;;;;;7.30;5.75;;;;;;;17.79;82.25;100627.47;1815542;78;20916;-91
2022/07/23 04:29:33;;;;;;;8.68;7.87;;;;;;;17.94;81.71;100625.75;1815668;79;20884;-89
2022/07/23 04:31:59;;;;;;;8.15;6.35;;;;;;;18.05;81.11;100632.24;1815394;79;21812;-90
2022/07/23 04:34:27;;;;;;;7.83;5.30;;;;;;;18.19;80.44;100636.31;1815710;79;20876;-92
2022/07/23 04:36:54;;;;;;;6.17;5.60;;;;;;;18.27;79.92;100629.78;1815864;79;20840;-90
2022/07/23 04:39:21;;;;;;;6.25;5.20;;;;;;;18.39;79.47;100633.14;1816616;78;20920;-89
2022/07/23 04:41:48;;;;;;;7.65;4.97;;;;;;;18.48;79.17;100631.45;1816234;79;20955;-91
2022/07/23 04:44:15;;;;;;;5.62;5.22;;;;;;;18.59;78.74;100635.27;1815695;79;21299;-90
2022/07/23 04:46:42;;;;;;;5.30;4.65;;;;;;;18.74;78.41;100633.83;1815386;79;20920;-91
2022/07/23 04:49:08;;;;;;;4.90;4.60;;;;;;;18.86;77.71;100634.51;1815375;79;21029;-91
2022/07/23 04:51:36;;;;;;;5.45;4.87;;;;;;;18.96;77.38;100635.29;1815434;79;20841;-90
2022/07/23 04:54:03;;;;;;;5.65;4.70;;;;;;;19.02;76.85;100628.06;1815499;79;20880;-90
2022/07/23 04:56:30;;;;;;;5.87;4.67;;;;;;;19.13;76.34;100636.84;1815708;79;21914;-90
2022/07/23 04:58:57;;;;;;;6.45;5.42;;;;;;;19.22;76.05;100632.80;1815482;79;20891;-91
2022/07/23 05:01:23;;;;;;;5.35;4.83;;;;;;;19.45;76.00;100637.70;1815331;78;21353;-90
2022/07/23 05:03:50;;;;;;;5.60;5.10;;;;;;;19.71;75.32;100636.52;1815283;79;20967;-90
2022/07/23 05:06:18;;;;;;;4.95;4.40;;;;;;;19.98;74.53;100651.58;1815786;79;20963;-91
2022/07/23 05:08:45;;;;;;;4.35;4.05;;;;;;;20.33;73.50;100643.73;1784029;79;21144;-91
2022/07/23 05:11:11;;;;;;;4.50;4.25;;;;;;;20.76;72.10;100640.20;1815553;79;20927;-91
2022/07/23 05:13:38;;;;;;;7.92;6.17;;;;;;;21.08;71.30;100648.05;1784407;79;20994;-91
2022/07/23 05:16:06;;;;;;;4.58;4.17;;;;;;;21.39;69.65;100653.67;1815513;79;20849;-91
2022/07/23 05:18:35;;;;;;;5.30;4.90;;;;;;;21.55;68.62;100648.08;1815874;79;20900;-90
2022/07/23 05:21:01;;;;;;;4.85;4.55;;;;;;;21.73;67.64;100646.11;1815521;78;21768;-91
2022/07/23 05:23:30;;;;;;;4.67;4.47;;;;;;;21.97;67.33;100651.16;1815399;79;20892;-89
2022/07/23 05:25:57;;;;;;;5.65;5.15;;;;;;;22.26;66.37;100644.02;1815693;79;20873;-91
2022/07/23 05:28:25;;;;;;;4.78;4.47;;;;;;;22.51;65.40;100640.30;1815412;79;20944;-91
2022/07/23 05:30:53;;;;;;;12.40;6.47;;;;;;;22.73;64.23;100643.27;1815626;79;20923;-92
2022/07/23 05:33:20;;;;;;;7.37;5.03;;;;;;;22.91;63.38;100643.87;1816225;79;21326;-90
2022/07/23 05:35:47;;;;;;;6.25;4.97;;;;;;;23.11;62.41;100640.33;1817174;79;20919;-89
2022/07/23 05:38:25;;;;;;;4.83;4.42;;;;;;;23.35;61.59;100638.56;1817095;79;20849;-91
2022/07/23 05:40:52;;;;;;;4.70;4.20;;;;;;;23.39;61.16;100634.53;1817874;77;21472;-91
2022/07/23 05:43:20;;;;;;;6.55;5.25;;;;;;;23.38;60.87;100641.70;1817888;78;20964;-91
2022/07/23 05:45:46;;;;;;;5.25;4.83;;;;;;;23.27;60.82;100645.28;1817922;77;21098;-91
2022/07/23 05:48:13;;;;;;;6.90;4.78;;;;;;;23.29;61.41;100640.08;1815333;79;20844;-92
2022/07/23 05:50:43;;;;;;;6.53;5.87;;;;;;;23.36;61.15;100635.69;1814206;79;21445;-91
2022/07/23 05:53:14;;;;;;;5.65;5.25;;;;;;;23.45;60.66;100638.33;1813976;79;21394;-91
2022/07/23 05:55:45;;;;;;;5.28;4.80;;;;;;;23.61;60.55;100636.06;1813288;79;20829;-90
2022/07/23 05:58:14;;;;;;;5.83;5.17;;;;;;;23.84;59.90;100634.27;1815158;79;20841;-92
2022/07/23 06:00:41;;;;;;;5.28;4.45;;;;;;;23.99;58.84;100628.47;1815164;79;20913;-91
2022/07/23 06:03:07;;;;;;;6.58;5.97;;;;;;;24.15;58.57;100628.00;1783635;78;20856;-90
2022/07/23 06:05:35;;;;;;;4.58;4.17;;;;;;;24.31;58.27;100633.21;1819459;78;20848;-91
2022/07/23 06:08:02;;;;;;;5.37;4.83;;;;;;;24.56;57.64;100635.68;1821435;78;20880;-91
2022/07/23 06:10:30;;;;;;;5.25;4.85;;;;;;;24.70;56.73;100635.36;1821287;78;21144;-91
2022/07/23 06:12:57;;;;;;;5.33;4.95;;;;;;;24.71;56.38;100641.06;1821039;78;20833;-90
2022/07/23 06:15:24;;;;;;;4.33;4.03;;;;;;;24.87;56.47;100644.08;1821702;78;20896;-91
2022/07/23 06:17:53;;;;;;;6.12;5.72;;;;;;;25.26;56.26;100647.83;1821257;78;20962;-91
2022/07/23 06:20:21;;;;;;;5.40;4.90;;;;;;;25.70;55.44;100637.97;1822352;78;20884;-87
2022/07/23 06:22:48;;;;;;;5.00;4.47;;;;;;;26.07;54.45;100642.30;1822435;78;21231;-90
2022/07/23 06:25:16;;;;;;;5.12;4.58;;;;;;;26.50;52.96;100644.08;1821685;78;20903;-91
2022/07/23 06:27:44;;;;;;;4.70;4.40;;;;;;;26.76;52.00;100644.80;1821819;78;20888;-90
2022/07/23 06:30:13;;;;;;;4.53;4.10;;;;;;;26.93;50.68;100636.73;1822181;78;20908;-90
2022/07/23 06:32:42;;;;;;;4.75;3.90;;;;;;;27.00;50.26;100643.49;1821743;78;20931;-89
2022/07/23 06:35:08;;;;;;;6.20;4.37;;;;;;;26.97;50.79;100636.66;1821126;78;21855;-88
2022/07/23 06:37:36;;;;;;;4.58;4.25;;;;;;;27.09;50.72;100644.45;1820989;78;20868;-90
2022/07/23 06:40:04;;;;;;;4.22;3.85;;;;;;;27.20;50.31;100639.55;1821519;78;20884;-91
2022/07/23 06:42:31;;;;;;;4.60;4.20;;;;;;;27.53;49.29;100641.56;1822545;78;20971;-88
2022/07/23 06:44:58;;;;;;;5.80;3.90;;;;;;;27.84;48.94;100641.86;1822137;78;21596;-90
2022/07/23 06:47:25;;;;;;;4.58;4.15;;;;;;;28.30;48.05;100636.16;1822144;78;21148;-90
2022/07/23 06:49:51;;;;;;;5.17;3.60;;;;;;;28.80;46.74;100646.51;1822261;78;20912;-89
2022/07/23 06:52:18;;;;;;;4.60;3.20;;;;;;;29.19;45.51;100642.85;1821696;78;20943;-90
2022/07/23 06:54:45;;;;;;;4.00;2.70;;;;;;;29.66;44.90;100646.16;1821799;78;20880;-90
2022/07/23 06:57:12;;;;;;;3.27;2.72;;;;;;;29.82;43.99;100643.48;1822554;78;21488;-90
2022/07/23 06:59:42;;;;;;;2.77;2.67;;;;;;;30.01;43.75;100644.91;1822866;78;21355;-91
2022/07/23 07:02:10;;;;;;;3.55;3.25;;;;;;;30.19;43.43;100642.78;1821047;78;20912;-90
2022/07/23 07:04:36;;;;;;;3.72;3.35;;;;;;;30.44;42.27;100643.64;1819927;78;20936;-91
2022/07/23 07:07:03;;;;;;;2.70;2.60;;;;;;;30.68;41.87;100641.95;1815006;79;20861;-91
2022/07/23 07:09:31;;;;;;;3.10;2.90;;;;;;;31.03;41.46;100644.06;1815073;79;21452;-90
2022/07/23 07:11:59;;;;;;;3.00;2.80;;;;;;;31.19;40.94;100640.76;1815208;78;21178;-91
2022/07/23 07:14:27;;;;;;;3.50;2.95;;;;;;;31.13;40.59;100638.13;1814902;79;21369;-89
2022/07/23 07:16:55;;;;;;;2.85;2.65;;;;;;;31.11;40.44;100642.41;1815264;78;20876;-91
2022/07/23 07:19:23;;;;;;;3.25;3.05;;;;;;;31.05;40.74;100639.78;1815616;79;20920;-90
2022/07/23 07:21:51;;;;;;;3.10;2.90;;;;;;;31.03;41.00;100644.06;1815353;79;20888;-88
2022/07/23 07:24:17;;;;;;;3.60;2.85;;;;;;;31.18;40.28;100645.86;1816734;79;21381;-92
2022/07/23 07:27:02;;;;;;;3.33;2.40;;;;;;;31.43;40.25;100644.94;1817069;79;20920;-91
2022/07/23 07:29:29;;;;;;;4.85;2.80;;;;;;;31.72;39.33;100647.88;1817304;79;20947;-91
2022/07/23 07:31:56;;;;;;;2.75;2.52;;;;;;;31.60;38.90;100643.24;1817826;77;20912;-90
2022/07/23 07:34:23;;;;;;;2.92;2.72;;;;;;;31.34;38.00;100643.58;1817019;78;20967;-91
2022/07/23 07:36:54;;;;;;;2.58;2.42;;;;;;;30.85;38.31;100643.55;1816060;78;21149;-89
2022/07/23 07:39:19;;;;;;;3.77;2.75;;;;;;;30.42;39.07;100643.03;1815759;78;20955;-90
2022/07/23 07:41:46;;;;;;;2.42;2.30;;;;;;;30.12;39.76;100645.01;1815791;79;20880;-90
2022/07/23 07:44:14;;;;;;;2.67;2.27;;;;;;;30.01;39.96;100645.73;1815680;79;20978;-90
2022/07/23 07:46:40;;;;;;;2.75;2.55;;;;;;;29.82;40.30;100646.72;1815540;79;20884;-92
2022/07/23 07:49:07;;;;;;;5.62;2.17;;;;;;;29.92;41.05;100653.28;1810572;79;21401;-89
2022/07/23 07:51:34;;;;;;;5.22;2.33;;;;;;;29.93;40.94;100650.08;1815189;79;20901;-91
2022/07/23 07:54:01;;;;;;;3.42;2.30;;;;;;;30.17;40.58;100657.91;1815396;79;21425;-88
2022/07/23 07:56:27;;;;;;;4.40;2.55;;;;;;;30.44;40.14;100647.70;1815009;79;21351;-93
2022/07/23 07:58:56;;;;;;;2.05;1.77;;;;;;;30.57;40.42;100652.98;1815025;78;20943;-92
2022/07/23 08:01:22;;;;;;;3.22;2.92;;;;;;;30.63;39.37;100658.02;1815173;79;21271;-92
2022/07/23 08:03:49;;;;;;;2.72;1.92;;;;;;;30.63;39.75;100657.19;1815074;79;20998;-91
2022/07/23 08:06:16;;;;;;;2.22;2.12;;;;;;;30.48;39.07;100658.39;1814977;79;20876;-92
2022/07/23 08:08:43;;;;;;;2.25;2.10;;;;;;;30.57;39.00;100655.69;1815005;78;20955;-92
2022/07/23 08:11:11;;;;;;;1.92;1.82;;;;;;;30.74;39.42;100655.09;1815539;78;21443;-91
2022/07/23 08:13:39;;;;;;;2.33;1.90;;;;;;;31.09;38.97;100664.84;1815023;79;21010;-91
2022/07/23 08:16:07;;;;;;;2.05;1.90;;;;;;;31.50;37.84;100664.64;1815048;78;20911;-90
2022/07/23 08:20:23;;;;;;;3.62;1.92;;;;;;;32.32;36.58;100662.69;1856880;77;22557;-87
2022/07/23 08:22:59;;;;;;;3.45;2.10;;;;;;;32.54;34.92;100663.50;1823555;78;20974;-90
2022/07/23 08:25:34;;;;;;;2.02;1.80;;;;;;;32.68;34.87;100662.17;1823047;78;21888;-91
2022/07/23 08:28:04;;;;;;;5.15;1.82;;;;;;;32.56;34.41;100662.20;1823015;78;21433;-90
2022/07/23 08:30:31;;;;;;;3.22;2.00;;;;;;;32.38;35.44;100666.36;1823053;78;20962;-91
2022/07/23 08:33:07;;;;;;;1.70;1.60;;;;;;;32.53;35.10;100665.94;1791657;78;20880;-90
2022/07/23 08:35:37;;;;;;;3.65;1.92;;;;;;;32.59;35.29;100666.32;1822704;78;20984;-90
2022/07/23 08:38:06;;;;;;;2.02;1.60;;;;;;;32.64;34.92;100669.17;1822976;78;21226;-90
2022/07/23 08:40:41;;;;;;;2.27;1.95;;;;;;;32.71;34.68;100669.05;1822854;78;21330;-90
2022/07/23 08:43:12;;;;;;;1.70;1.60;;;;;;;32.83;34.15;100660.34;1823003;78;21004;-92
2022/07/23 08:45:42;;;;;;;1.65;1.55;;;;;;;32.93;33.71;100665.16;1818029;78;20935;-92
2022/07/23 08:48:16;;;;;;;1.80;1.67;;;;;;;33.22;33.56;100668.26;1822906;78;20994;-90
2022/07/23 08:50:48;;;;;;;1.92;1.75;;;;;;;33.52;33.63;100660.93;1822902;78;21091;-93
2022/07/23 08:53:15;;;;;;;2.73;2.10;;;;;;;33.80;33.21;100656.03;1823259;78;20892;-93
2022/07/23 08:55:47;;;;;;;1.70;1.60;;;;;;;33.92;32.16;100668.20;1824741;78;20910;-91
2022/07/23 08:58:14;;;;;;;1.85;1.72;;;;;;;33.87;32.57;100664.86;1824084;78;20872;-90
2022/07/23 09:00:41;;;;;;;2.35;1.90;;;;;;;33.84;32.85;100657.20;1823135;78;20927;-92
2022/07/23 09:03:12;;;;;;;2.02;1.92;;;;;;;33.68;32.92;100656.08;1822913;78;21279;-92
2022/07/23 09:05:38;;;;;;;1.57;1.47;;;;;;;33.76;32.86;100653.52;1787879;78;21021;-91
2022/07/23 09:08:12;;;;;;;1.37;1.27;;;;;;;33.70;32.38;100647.14;1822831;78;20950;-91
2022/07/23 09:11:00;;;;;;;1.82;1.72;;;;;;;33.65;32.21;100642.44;1823024;78;21461;-92
2022/07/23 09:13:31;;;;;;;2.67;1.80;;;;;;;33.69;32.05;100650.13;1823937;78;20868;-90
2022/07/23 09:16:02;;;;;;;;;;;;;;;33.76;32.45;100651.61;1827762;78;20979;-91
2022/07/23 09:18:50;;;;;;;1.47;1.45;;;;;;;33.85;31.86;100646.05;1823669;78;20106;-93
2022/07/23 09:21:28;;;;;;;3.37;1.65;;;;;;;33.85;32.26;100650.67;1827414;78;20955;-92
2022/07/23 09:24:06;;;;;;;2.40;2.17;;;;;;;33.73;32.09;100651.27;1826373;78;20860;-92
2022/07/23 09:26:44;;;;;;;3.70;1.82;;;;;;;33.63;33.03;100651.92;1826288;78;20880;-93
2022/07/23 09:29:18;;;;;;;1.50;1.40;;;;;;;33.66;31.66;100645.98;1826402;78;21139;-92
2022/07/23 09:31:53;;;;;;;2.65;1.90;;;;;;;33.71;32.11;100656.16;1825808;78;20828;-92
2022/07/23 09:34:26;;;;;;;4.97;2.10;;;;;;;33.72;31.27;100650.45;1825756;78;20947;-90
2022/07/23 09:37:00;;;;;;;5.03;3.90;;;;;;;33.55;31.41;100654.48;1825887;78;20860;-91
2022/07/23 09:39:32;;;;;;;2.45;1.67;;;;;;;33.03;31.37;100649.89;1825535;78;20871;-91
2022/07/23 09:42:22;;;;;;;1.87;1.42;;;;;;;32.67;31.85;100652.93;1825673;78;21201;-91
2022/07/23 09:44:55;;;;;;;1.75;0.90;;;;;;;32.42;32.52;100648.55;1825636;78;21369;-91
2022/07/23 09:47:24;;;;;;;1.80;1.30;;;;;;;32.15;33.11;100646.80;1825676;78;20883;-91
2022/07/23 09:50:08;;;;;;;1.62;1.52;;;;;;;31.91;33.58;100648.11;1825514;78;20939;-91
2022/07/23 09:52:44;;;;;;;2.55;1.60;;;;;;;31.85;33.95;100647.67;1825756;78;20919;-89
2022/07/23 09:55:13;;;;;;;7.83;3.60;;;;;;;32.03;34.67;100647.33;1821277;78;20891;-91
2022/07/23 09:57:49;;;;;;;3.35;1.50;;;;;;;32.00;34.71;100646.73;1826140;78;20978;-92
2022/07/23 10:00:12;;;;;;;3.15;2.60;;;;;;;32.15;34.04;100648.16;1824940;78;20955;-90
2022/07/23 10:02:39;;;;;;;1.67;1.57;;;;;;;32.04;34.73;100641.68;1828188;78;20911;-89
2022/07/23 10:05:25;;;;;;;5.00;2.47;;;;;;;32.21;34.74;100645.33;1827141;78;20844;-88
2022/07/23 10:08:11;;;;;;;8.30;4.78;;;;;;;32.42;35.02;100641.77;1825915;78;21158;-90
2022/07/23 10:10:52;;;;;;;3.25;1.85;;;;;;;33.05;34.19;100640.15;1729801;83;20912;-90
2022/07/23 10:14:10;;;;;;;16.15;14.50;;;;;;;33.05;34.19;100640.15;1704026;83;20982;-93
2022/07/23 10:16:02;;;;;;;5.17;3.37;;;;;;;33.32;33.45;100639.08;1661648;84;20940;-92
2022/07/23 10:18:30;;;;;;;6.42;5.78;;;;;;;33.52;33.42;100637.81;1729095;83;21441;-90
2022/07/23 10:20:59;;;;;;;1.60;1.50;;;;;;;33.50;33.01;100633.97;1686575;84;21353;-91
2022/07/23 10:23:35;;;;;;;3.50;1.45;;;;;;;33.34;33.08;100635.58;1686461;85;21418;-92
2022/07/23 10:26:32;;;;;;;1.30;1.30;;;;;;;33.06;33.43;100628.77;1676417;85;21000;-91
2022/07/23 10:29:24;;;;;;;6.70;2.65;;;;;;;32.83;34.25;100621.77;1676128;85;21071;-91
2022/07/23 10:32:05;;;;;;;2.62;1.32;;;;;;;32.69;34.24;100621.75;1662351;85;21490;-90
2022/07/23 10:34:57;;;;;;;1.85;1.30;;;;;;;32.73;33.97;100613.96;1656466;85;22070;-91
2022/07/23 10:37:38;;;;;;;2.00;1.80;;;;;;;32.70;33.71;100622.56;1676180;85;20948;-92
2022/07/23 10:40:20;;;;;;;3.77;1.02;;;;;;;32.46;33.85;100626.66;1676685;85;20907;-90
2022/07/23 10:42:47;;;;;;;5.20;4.53;;;;;;;32.19;33.67;100629.84;1676640;85;21395;-89
2022/07/23 10:45:32;;;;;;;3.62;3.35;;;;;;;32.03;33.92;100622.38;1676633;85;20896;-91
2022/07/23 10:48:29;;;;;;;1.80;1.57;;;;;;;32.06;34.49;100617.00;1757323;81;21168;-90
2022/07/23 10:51:15;;;;;;;1.52;1.42;;;;;;;32.22;34.64;100616.33;1759713;80;20896;-92
2022/07/23 10:53:57;;;;;;;4.83;3.30;;;;;;;32.46;34.38;100622.58;1759752;80;20923;-90
2022/07/23 10:57:00;;;;;;;2.62;2.40;;;;;;;32.71;34.02;100611.48;1759676;81;20875;-90
2022/07/23 10:59:27;;;;;;;3.02;2.75;;;;;;;32.96;33.15;100611.17;1759752;80;20990;-91
2022/07/23 11:02:07;;;;;;;1.55;1.45;;;;;;;33.14;32.18;100601.22;1755566;81;20876;-89
2022/07/23 11:04:52;;;;;;;2.42;2.33;;;;;;;33.12;32.40;100607.44;1820056;78;20966;-90
2022/07/23 11:07:19;;;;;;;3.62;2.05;;;;;;;33.02;32.99;100602.06;1823696;78;20966;-89
2022/07/23 11:09:47;;;;;;;92.72;84.52;;;;;;;32.93;33.34;100609.45;1824175;78;20876;-89
2022/07/23 11:12:30;;;;;;;5.85;5.03;;;;;;;32.98;32.80;100602.25;1824177;78;20911;-91
2022/07/23 11:15:13;;;;;;;3.08;1.85;;;;;;;33.06;33.13;100605.12;1823977;78;21138;-91
2022/07/23 11:17:52;;;;;;;1.60;1.50;;;;;;;33.32;33.14;100601.02;1824092;78;20872;-89
2022/07/23 11:20:24;;;;;;;3.25;2.95;;;;;;;33.30;33.07;100600.97;1824850;78;20880;-92
2022/07/23 11:22:59;;;;;;;8.98;8.30;;;;;;;33.25;32.91;100604.42;1826054;78;20935;-91
2022/07/23 11:25:31;;;;;;;3.12;3.00;;;;;;;33.14;33.25;100603.40;1825847;78;21460;-91
2022/07/23 11:28:12;;;;;;;1.30;1.30;;;;;;;33.11;33.15;100597.09;1825643;78;21129;-91
2022/07/23 11:30:45;;;;;;;5.95;4.12;;;;;;;33.03;33.56;100599.62;1825380;78;20891;-90
2022/07/23 11:33:19;;;;;;;1.07;0.98;;;;;;;32.96;33.72;100601.66;1825830;78;21401;-91
2022/07/23 11:36:01;;;;;;;2.90;2.65;;;;;;;32.78;33.26;100598.58;1825681;78;20891;-92
2022/07/23 11:38:31;;;;;;;4.35;3.95;;;;;;;32.58;33.68;100592.73;1825840;78;21066;-90